Time,TemperatureF,DewpointF,PressureIn,WindDirection,WindDirectionDegrees,WindSpeedMPH,WindSpeedGustMPH,Humidity,HourlyPrecipIn,Conditions,Clouds,dailyrainin,SoftwareType,DateUTC
2013-08-12 05:28:00,74.7,69.5,29.90,NE,45,0.0,-999.0,84,-99.99,,,0.00,Acu-Link.com,2013-08-12 15:28:00,
2013-08-12 05:44:00,74.7,69.2,29.89,North,0,0.0,-999.0,83,-99.99,,,0.00,Acu-Link.com,2013-08-12 15:44:00,
2013-08-12 06:00:00,73.9,68.8,29.89,NNE,22,1.7,-999.0,84,-99.99,,,0.00,Acu-Link.com,2013-08-12 16:00:00,
2013-08-12 06:15:00,74.1,68.6,29.89,North,0,0.0,-999.0,83,-99.99,,,0.00,Acu-Link.com,2013-08-12 16:15:00,
2013-08-12 06:31:00,74.3,69.1,29.90,North,0,0.0,-999.0,84,-99.99,,,0.00,Acu-Link.com,2013-08-12 16:31:00,
2013-08-12 06:46:00,74.8,69.6,29.91,North,0,0.0,-999.0,84,-99.99,,,0.00,Acu-Link.com,2013-08-12 16:46:00,
2013-08-12 07:01:00,75.6,70.8,29.91,WSW,247,0.0,-999.0,85,-99.99,,,0.00,Acu-Link.com,2013-08-12 17:01:00,
2013-08-12 07:17:00,76.1,70.9,29.91,South,180,1.7,-999.0,84,-99.99,,,0.00,Acu-Link.com,2013-08-12 17:17:00,
2013-08-12 07:32:00,76.5,70.9,29.91,WSW,247,0.0,-999.0,83,-99.99,,,0.00,Acu-Link.com,2013-08-12 17:32:00,
2013-08-12 07:47:00,77.0,70.7,29.94,NNW,337,0.0,-999.0,81,-99.99,,,0.00,Acu-Link.com,2013-08-12 17:47:00,
2013-08-12 09:38:00,84.2,70.2,29.94,SW,225,2.2,-999.0,63,-99.99,,,0.00,Acu-Link.com,2013-08-12 19:38:00,
2013-08-12 09:53:00,85.6,70.1,29.92,West,270,2.2,-999.0,60,-99.99,,,0.00,Acu-Link.com,2013-08-12 19:53:00,
2013-08-12 10:08:00,87.3,70.2,29.92,NNE,22,4.2,-999.0,57,-99.99,,,0.00,Acu-Link.com,2013-08-12 20:08:00,
2013-08-12 10:23:00,85.3,70.3,29.92,North,0,4.7,-999.0,61,-99.99,,,0.00,Acu-Link.com,2013-08-12 20:23:00,
2013-08-12 10:39:00,86.2,70.7,29.92,North,0,1.7,-999.0,60,-99.99,,,0.00,Acu-Link.com,2013-08-12 20:39:00,
2013-08-12 10:54:00,85.8,70.3,29.92,SW,225,2.2,-999.0,60,-99.99,,,0.00,Acu-Link.com,2013-08-12 20:54:00,
2013-08-12 11:09:00,86.2,71.1,29.94,NNE,22,0.0,-999.0,61,-99.99,,,0.00,Acu-Link.com,2013-08-12 21:09:00,
2013-08-12 11:25:00,87.4,70.8,29.92,North,0,3.2,-999.0,58,-99.99,,,0.00,Acu-Link.com,2013-08-12 21:25:00,
2013-08-12 11:40:00,88.0,71.8,29.92,WSW,247,2.7,-999.0,59,-99.99,,,0.00,Acu-Link.com,2013-08-12 21:40:00,
2013-08-12 11:55:00,86.5,69.9,29.91,NW,315,1.1,-999.0,58,-99.99,,,0.00,Acu-Link.com,2013-08-12 21:55:00,
2013-08-12 12:10:00,88.3,69.5,29.91,North,0,2.7,-999.0,54,-99.99,,,0.00,Acu-Link.com,2013-08-12 22:10:00,
2013-08-12 12:26:00,89.4,70.5,29.90,WSW,247,1.1,-999.0,54,-99.99,,,0.00,Acu-Link.com,2013-08-12 22:26:00,
2013-08-12 12:41:00,89.8,70.9,29.91,NW,315,1.7,-999.0,54,-99.99,,,0.00,Acu-Link.com,2013-08-12 22:41:00,
2013-08-12 12:56:00,89.4,70.0,29.87,ENE,67,1.1,-999.0,53,-99.99,,,0.00,Acu-Link.com,2013-08-12 22:56:00,
2013-08-12 13:11:00,88.7,69.9,29.89,NNE,22,2.2,-999.0,54,-99.99,,,0.00,Acu-Link.com,2013-08-12 23:11:00,
2013-08-12 13:27:00,90.3,70.2,29.87,NNE,22,2.2,-999.0,52,-99.99,,,0.00,Acu-Link.com,2013-08-12 23:27:00,
2013-08-12 13:42:00,88.7,71.0,29.86,WSW,247,0.0,-999.0,56,-99.99,,,0.00,Acu-Link.com,2013-08-12 23:42:00,
2013-08-12 13:57:00,88.9,70.1,29.86,North,0,3.7,-999.0,54,-99.99,,,0.00,Acu-Link.com,2013-08-12 23:57:00,
2013-08-12 14:13:00,88.2,68.9,29.86,NW,315,1.7,-999.0,53,-99.99,,,0.00,Acu-Link.com,2013-08-13 00:13:00,
2013-08-12 14:28:00,87.1,67.9,29.86,WNW,292,2.2,-999.0,53,-99.99,,,0.00,Acu-Link.com,2013-08-13 00:28:00,
2013-08-12 14:44:00,89.1,66.8,29.88,North,0,2.2,-999.0,48,-99.99,,,0.00,Acu-Link.com,2013-08-13 00:44:00,
2013-08-12 14:59:00,90.1,66.5,29.86,North,0,0.0,-999.0,46,-99.99,,,0.00,Acu-Link.com,2013-08-13 00:59:00,
2013-08-12 15:14:00,91.0,68.5,29.87,South,180,2.2,-999.0,48,-99.99,,,0.00,Acu-Link.com,2013-08-13 01:14:00,
2013-08-12 15:29:00,90.5,68.1,29.84,WNW,292,2.2,-999.0,48,-99.99,,,0.00,Acu-Link.com,2013-08-13 01:29:00,
2013-08-12 15:45:00,89.6,67.3,29.84,SW,225,1.1,-999.0,48,-99.99,,,0.00,Acu-Link.com,2013-08-13 01:45:00,
2013-08-12 16:00:00,88.5,68.6,29.84,NNW,337,3.2,-999.0,52,-99.99,,,0.00,Acu-Link.com,2013-08-13 02:00:00,
2013-08-12 16:15:00,88.3,68.4,29.84,SW,225,2.7,-999.0,52,-99.99,,,0.00,Acu-Link.com,2013-08-13 02:15:00,
2013-08-12 16:30:00,86.9,67.7,29.85,North,0,1.7,-999.0,53,-99.99,,,0.00,Acu-Link.com,2013-08-13 02:30:00,
2013-08-12 16:46:00,84.4,67.5,29.85,WSW,247,2.2,-999.0,57,-99.99,,,0.00,Acu-Link.com,2013-08-13 02:46:00,
2013-08-12 17:01:00,84.9,67.4,29.84,NNE,22,1.7,-999.0,56,-99.99,,,0.00,Acu-Link.com,2013-08-13 03:01:00,
2013-08-12 17:16:00,84.4,67.5,29.85,West,270,2.2,-999.0,57,-99.99,,,0.00,Acu-Link.com,2013-08-13 03:16:00,
2013-08-12 17:32:00,83.8,67.9,29.85,NNW,337,2.7,-999.0,59,-99.99,,,0.00,Acu-Link.com,2013-08-13 03:32:00,
2013-08-12 17:47:00,82.0,67.7,29.86,North,0,1.7,-999.0,62,-99.99,,,0.00,Acu-Link.com,2013-08-13 03:47:00,
2013-08-12 18:02:00,81.3,67.5,29.88,West,270,1.1,-999.0,63,-99.99,,,0.00,Acu-Link.com,2013-08-13 04:02:00,
2013-08-12 18:17:00,80.4,67.5,29.86,North,0,1.7,-999.0,65,-99.99,,,0.00,Acu-Link.com,2013-08-13 04:17:00,
2013-08-12 18:32:00,79.7,67.3,29.86,South,180,1.1,-999.0,66,-99.99,,,0.00,Acu-Link.com,2013-08-13 04:32:00,
2013-08-12 18:48:00,79.5,68.0,29.87,North,0,0.0,-999.0,68,-99.99,,,0.00,Acu-Link.com,2013-08-13 04:48:00,
2013-08-12 19:03:00,78.8,67.7,29.88,NNE,22,2.2,-999.0,69,-99.99,,,0.00,Acu-Link.com,2013-08-13 05:03:00,
2013-08-12 19:18:00,78.4,67.8,29.88,NE,45,1.1,-999.0,70,-99.99,,,0.00,Acu-Link.com,2013-08-13 05:18:00,
2013-08-12 19:34:00,78.1,67.9,29.88,WNW,292,4.2,-999.0,71,-99.99,,,0.00,Acu-Link.com,2013-08-13 05:34:00,
2013-08-12 19:49:00,77.9,67.3,29.88,North,0,1.7,-999.0,70,-99.99,,,0.00,Acu-Link.com,2013-08-13 05:49:00,
2013-08-12 20:05:00,77.7,67.5,29.91,ESE,112,2.2,-999.0,71,-99.99,,,0.00,Acu-Link.com,2013-08-13 06:05:00,
2013-08-12 20:20:00,77.5,67.7,29.90,SW,225,3.2,-999.0,72,-99.99,,,0.00,Acu-Link.com,2013-08-13 06:20:00,
2013-08-12 20:35:00,77.5,67.7,29.90,North,0,1.7,-999.0,72,-99.99,,,0.00,Acu-Link.com,2013-08-13 06:35:00,
2013-08-12 20:52:00,77.5,68.1,29.91,South,180,1.7,-999.0,73,-99.99,,,0.00,Acu-Link.com,2013-08-13 06:52:00,
2013-08-12 21:08:00,77.5,67.7,29.91,NNE,22,0.0,-999.0,72,-99.99,,,0.00,Acu-Link.com,2013-08-13 07:08:00,
2013-08-12 21:24:00,77.5,68.1,29.91,NNW,337,1.7,-999.0,73,-99.99,,,0.00,Acu-Link.com,2013-08-13 07:24:00,
2013-08-12 21:40:00,77.5,68.1,29.92,North,0,0.0,-999.0,73,-99.99,,,0.00,Acu-Link.com,2013-08-13 07:40:00,
2013-08-12 21:55:00,77.5,68.5,29.94,ESE,112,0.0,-999.0,74,-99.99,,,0.00,Acu-Link.com,2013-08-13 07:55:00,
2013-08-12 22:10:00,77.5,68.1,29.92,SSW,202,1.7,-999.0,73,-99.99,,,0.00,Acu-Link.com,2013-08-13 08:10:00,
2013-08-12 22:25:00,77.5,68.9,29.92,SSW,202,0.0,-999.0,75,-99.99,,,0.00,Acu-Link.com,2013-08-13 08:25:00,
2013-08-12 22:41:00,77.5,69.7,29.92,NNW,337,0.0,-999.0,77,-99.99,,,0.00,Acu-Link.com,2013-08-13 08:41:00,
2013-08-12 22:56:00,77.2,69.0,29.92,East,90,1.1,-999.0,76,-99.99,,,0.00,Acu-Link.com,2013-08-13 08:56:00,